Time;durP1;ratioP1;P1;durP2;ratioP2;P2;SDS_P1;SDS_P2;PMS_P1;PMS_P2;Temp;Humidity;BMP_temperature;BMP_pressure;BME280_temperature;BME280_humidity;BME280_pressure;Samples;Min_cycle;Max_cycle;Signal;HPM_P1;HPM_P2
2022/04/07 00:00:26;;;;;;;4.93;4.47;;;9.30;99.90;;;;;;5064878;28;20195;-44
2022/04/07 00:02:54;;;;;;;6.27;5.67;;;9.30;99.90;;;;;;5056977;28;20187;-44
2022/04/07 00:05:20;;;;;;;6.63;6.03;;;9.30;99.90;;;;;;5065045;28;20765;-48
2022/04/07 00:07:49;;;;;;;6.50;5.83;;;9.30;99.90;;;;;;5061187;28;20845;-47
2022/04/07 00:10:15;;;;;;;6.50;5.57;;;9.30;99.90;;;;;;5053302;28;20592;-49
2022/04/07 00:12:42;;;;;;;6.10;5.60;;;9.30;99.90;;;;;;5062679;28;20194;-47
2022/04/07 00:15:10;;;;;;;6.73;5.23;;;9.30;99.90;;;;;;5064358;28;20277;-46
2022/04/07 00:17:37;;;;;;;6.37;5.87;;;9.30;99.90;;;;;;5057908;28;20305;-44
2022/04/07 00:20:04;;;;;;;6.53;6.03;;;9.30;99.90;;;;;;5063279;28;20198;-45
2022/04/07 00:22:31;;;;;;;4.47;4.17;;;9.30;99.90;;;;;;5064298;28;20226;-46
2022/04/07 00:24:59;;;;;;;5.93;5.33;;;9.30;99.90;;;;;;5049943;28;20210;-47
2022/04/07 00:27:26;;;;;;;5.33;4.93;;;9.30;99.90;;;;;;5064334;28;20223;-43
2022/04/07 00:29:52;;;;;;;6.10;5.57;;;9.30;99.90;;;;;;5061454;28;20195;-45
2022/04/07 00:32:19;;;;;;;6.20;5.70;;;9.40;99.90;;;;;;5070190;28;20198;-46
2022/04/07 00:34:49;;;;;;;5.60;5.03;;;9.30;99.90;;;;;;5056577;28;20238;-44
2022/04/07 00:37:16;;;;;;;5.30;4.90;;;9.40;99.90;;;;;;5063845;28;20218;-44
2022/04/07 00:39:43;;;;;;;5.93;5.03;;;9.40;99.90;;;;;;5052610;28;20203;-49
2022/04/07 00:42:11;;;;;;;4.63;4.23;;;9.40;99.90;;;;;;5062240;28;20214;-48
2022/04/07 00:44:37;;;;;;;5.47;5.07;;;9.40;99.90;;;;;;5063439;28;20198;-46
2022/04/07 00:47:05;;;;;;;6.17;5.67;;;9.40;99.90;;;;;;5064831;28;20212;-48
2022/04/07 00:49:32;;;;;;;5.27;4.77;;;9.40;99.90;;;;;;5058638;28;20210;-46
2022/04/07 00:51:59;;;;;;;5.60;4.80;;;9.50;99.90;;;;;;5061902;28;20248;-46
2022/04/07 00:54:27;;;;;;;5.03;4.37;;;9.50;99.90;;;;;;5065166;28;20194;-44
2022/04/07 00:56:55;;;;;;;5.87;5.30;;;9.50;99.90;;;;;;5046075;28;20214;-46
2022/04/07 00:59:24;;;;;;;5.70;5.00;;;9.50;99.90;;;;;;5065180;28;20226;-46
2022/04/07 01:01:51;;;;;;;5.10;4.70;;;9.50;99.90;;;;;;5058703;28;20227;-46
2022/04/07 01:04:18;;;;;;;5.83;5.43;;;9.50;99.90;;;;;;5059074;28;20202;-46
2022/04/07 01:06:47;;;;;;;5.23;4.83;;;9.50;99.90;;;;;;5056777;28;20268;-46
2022/04/07 01:09:15;;;;;;;6.17;4.93;;;9.50;99.90;;;;;;5064385;28;20356;-47
2022/04/07 01:11:43;;;;;;;5.43;4.23;;;9.50;99.90;;;;;;5053123;28;20302;-47
2022/04/07 01:14:09;;;;;;;5.53;4.60;;;9.50;99.90;;;;;;5061687;28;20203;-46
2022/04/07 01:16:37;;;;;;;5.37;4.80;;;9.50;99.90;;;;;;5062058;28;20229;-46
2022/04/07 01:19:05;;;;;;;6.23;4.50;;;9.50;99.90;;;;;;5056947;28;20317;-47
2022/04/07 01:21:35;;;;;;;6.23;5.07;;;9.50;99.90;;;;;;5064130;28;20687;-44
2022/04/07 01:24:03;;;;;;;5.47;4.93;;;9.50;99.90;;;;;;5061752;28;20201;-45
2022/04/07 01:26:33;;;;;;;5.23;4.73;;;9.50;99.90;;;;;;5062634;28;20199;-46
2022/04/07 01:29:01;;;;;;;7.43;4.60;;;9.50;99.90;;;;;;5053241;28;20282;-46
2022/04/07 01:31:28;;;;;;;7.67;5.03;;;9.50;99.90;;;;;;5063832;28;20202;-45
2022/04/07 01:33:57;;;;;;;5.10;4.67;;;9.40;99.90;;;;;;5060939;28;20278;-47
2022/04/07 01:36:24;;;;;;;6.03;5.53;;;9.40;99.90;;;;;;5057810;28;20292;-46
2022/04/07 01:38:51;;;;;;;5.90;5.07;;;9.40;99.90;;;;;;5060061;28;20182;-47
2022/04/07 01:41:20;;;;;;;7.37;5.90;;;9.40;99.90;;;;;;5063868;28;20284;-47
2022/04/07 01:43:51;;;;;;;6.60;5.27;;;9.40;99.90;;;;;;5048038;28;20203;-49
2022/04/07 01:46:20;;;;;;;7.20;5.90;;;9.30;99.90;;;;;;5062928;28;20190;-47
2022/04/07 01:48:47;;;;;;;6.63;6.03;;;9.30;99.90;;;;;;5059935;28;20222;-44
2022/04/07 01:51:14;;;;;;;6.57;5.97;;;9.30;99.90;;;;;;5060730;28;20216;-47
2022/04/07 01:53:41;;;;;;;6.43;5.93;;;9.30;99.90;;;;;;5061230;28;20256;-43
2022/04/07 01:56:09;;;;;;;6.50;5.77;;;9.30;99.90;;;;;;5058516;28;20198;-46
2022/04/07 01:58:36;;;;;;;6.90;6.20;;;9.30;99.90;;;;;;5056747;28;20218;-45
2022/04/07 02:01:05;;;;;;;7.70;5.83;;;9.30;99.90;;;;;;5054257;28;20213;-44
2022/04/07 02:03:32;;;;;;;7.03;5.30;;;9.40;99.90;;;;;;5062119;28;20207;-45
2022/04/07 02:06:10;;;;;;;6.60;5.73;;;9.30;99.90;;;;;;5055504;28;20203;-47
2022/04/07 02:08:37;;;;;;;6.47;5.90;;;9.40;99.90;;;;;;5060956;28;20228;-46
2022/04/07 02:11:04;;;;;;;6.57;5.97;;;9.40;99.90;;;;;;5062213;28;20695;-44
2022/04/07 02:13:32;;;;;;;8.83;5.93;;;9.40;99.90;;;;;;5059228;28;20199;-48
2022/04/07 02:15:59;;;;;;;5.07;4.63;;;9.40;99.90;;;;;;5052744;28;20252;-44
2022/04/07 02:18:28;;;;;;;6.80;5.23;;;9.40;99.90;;;;;;5062570;28;20238;-43
2022/04/07 02:20:54;;;;;;;8.37;6.20;;;9.40;99.90;;;;;;5055005;28;20944;-45
2022/04/07 02:23:21;;;;;;;7.03;5.67;;;9.40;99.90;;;;;;5061949;28;20222;-45
2022/04/07 02:25:47;;;;;;;5.77;5.27;;;9.40;99.90;;;;;;5059199;28;20699;-47
2022/04/07 02:28:14;;;;;;;7.80;5.77;;;9.40;99.90;;;;;;5062453;28;20215;-48
2022/04/07 02:30:41;;;;;;;8.17;5.60;;;9.40;99.90;;;;;;5053763;28;20256;-45
2022/04/07 02:33:07;;;;;;;5.13;4.73;;;9.40;99.90;;;;;;5059975;28;20252;-45
2022/04/07 02:35:35;;;;;;;6.20;5.63;;;9.40;99.90;;;;;;5061179;28;20222;-43
2022/04/07 02:38:02;;;;;;;8.47;5.63;;;9.40;99.90;;;;;;5054810;28;20222;-43
2022/04/07 02:40:28;;;;;;;5.73;5.17;;;9.40;99.90;;;;;;5061495;28;21114;-48
2022/04/07 02:42:55;;;;;;;5.20;4.70;;;9.40;99.90;;;;;;5059578;28;20215;-48
2022/04/07 02:45:22;;;;;;;6.17;5.57;;;9.40;99.90;;;;;;5051071;28;20207;-43
2022/04/07 02:47:48;;;;;;;7.40;4.77;;;9.40;99.90;;;;;;5057469;28;20226;-44
2022/04/07 02:50:16;;;;;;;4.63;4.23;;;9.40;99.90;;;;;;5062560;28;20198;-45
2022/04/07 02:52:44;;;;;;;6.73;4.73;;;9.40;99.90;;;;;;5053846;28;20198;-43
2022/04/07 02:55:11;;;;;;;5.50;4.07;;;9.40;99.90;;;;;;5062465;28;20198;-44
2022/04/07 02:57:38;;;;;;;5.50;4.93;;;9.50;99.90;;;;;;5059554;28;20747;-43
2022/04/07 03:00:06;;;;;;;5.47;4.97;;;9.50;99.90;;;;;;5061033;28;20190;-45
2022/04/07 03:02:32;;;;;;;4.73;4.33;;;9.50;99.90;;;;;;5049714;28;20706;-43
2022/04/07 03:04:59;;;;;;;7.27;5.37;;;9.50;99.90;;;;;;5060200;28;20198;-44
2022/04/07 03:07:26;;;;;;;5.57;5.10;;;9.40;99.90;;;;;;5057373;28;20219;-44
2022/04/07 03:09:54;;;;;;;4.63;4.23;;;9.40;99.90;;;;;;5054454;28;20248;-45
2022/04/07 03:12:21;;;;;;;5.37;4.97;;;9.30;99.90;;;;;;5061350;28;20286;-46
2022/04/07 03:14:48;;;;;;;5.93;5.00;;;9.20;99.90;;;;;;5057700;28;20220;-44
2022/04/07 03:17:15;;;;;;;5.40;4.90;;;9.20;99.90;;;;;;5053597;28;20226;-45
2022/04/07 03:19:43;;;;;;;6.17;5.50;;;9.10;99.90;;;;;;5060027;28;20585;-48
2022/04/07 03:22:12;;;;;;;6.87;6.27;;;9.10;99.90;;;;;;5062053;28;20219;-44
2022/04/07 03:24:39;;;;;;;7.17;6.33;;;9.10;99.90;;;;;;5058256;28;20226;-48
2022/04/07 03:27:07;;;;;;;9.10;7.23;;;9.00;99.90;;;;;;5066923;28;20218;-43
2022/04/07 03:29:34;;;;;;;8.20;7.50;;;9.00;99.90;;;;;;5068260;28;20277;-47
2022/04/07 03:32:01;;;;;;;9.00;8.10;;;9.00;99.90;;;;;;5053840;28;20217;-44
2022/04/07 03:34:28;;;;;;;8.73;7.87;;;9.00;99.90;;;;;;5063304;28;20195;-47
2022/04/07 03:36:54;;;;;;;9.10;8.20;;;9.10;99.90;;;;;;5064609;28;20297;-43
2022/04/07 03:39:21;;;;;;;9.00;7.50;;;9.10;99.90;;;;;;5063512;28;20198;-44
2022/04/07 03:41:48;;;;;;;9.20;8.30;;;9.10;99.90;;;;;;5060369;28;20406;-45
2022/04/07 03:44:16;;;;;;;9.27;8.43;;;9.10;99.90;;;;;;5069400;28;20203;-44
2022/04/07 03:46:43;;;;;;;8.73;7.90;;;9.10;99.90;;;;;;5055580;28;20226;-44
2022/04/07 03:49:10;;;;;;;8.80;8.00;;;9.20;99.90;;;;;;5071476;28;20205;-47
2022/04/07 03:51:37;;;;;;;9.17;8.30;;;9.20;99.90;;;;;;5067335;28;20686;-48
2022/04/07 03:54:04;;;;;;;8.40;7.60;;;9.30;99.90;;;;;;5063560;28;20182;-45
2022/04/07 03:56:31;;;;;;;9.53;8.63;;;9.30;99.90;;;;;;5063278;28;20207;-45
2022/04/07 03:58:58;;;;;;;9.20;8.40;;;9.30;99.90;;;;;;5069416;28;20194;-44
2022/04/07 04:01:27;;;;;;;8.70;7.90;;;9.30;99.90;;;;;;5059523;28;20214;-46
2022/04/07 04:03:54;;;;;;;6.90;6.30;;;9.30;99.90;;;;;;5052411;28;20257;-43
2022/04/07 04:06:21;;;;;;;7.73;6.97;;;9.40;99.90;;;;;;5065910;28;20207;-44
2022/04/07 04:08:47;;;;;;;7.50;6.80;;;9.40;99.90;;;;;;5058746;28;20210;-45
2022/04/07 04:11:15;;;;;;;8.37;7.33;;;9.40;99.90;;;;;;5062552;28;20580;-47
2022/04/07 04:13:42;;;;;;;7.97;7.17;;;9.40;99.90;;;;;;5065972;28;20190;-43
2022/04/07 04:16:09;;;;;;;6.03;5.50;;;9.40;99.90;;;;;;5063580;28;20213;-44
2022/04/07 04:18:37;;;;;;;6.37;5.87;;;9.40;99.90;;;;;;5050919;28;20222;-43
2022/04/07 04:21:04;;;;;;;5.63;5.23;;;9.50;99.90;;;;;;5063019;28;20205;-43
2022/04/07 04:23:31;;;;;;;6.53;5.80;;;9.50;99.90;;;;;;5057545;28;20218;-46
2022/04/07 04:25:58;;;;;;;6.23;5.67;;;9.50;99.90;;;;;;5060414;28;20205;-43
2022/04/07 04:28:25;;;;;;;6.57;6.00;;;9.50;99.90;;;;;;5060422;28;20275;-43
2022/04/07 04:30:51;;;;;;;5.77;5.17;;;9.50;99.90;;;;;;5066535;28;20709;-43
2022/04/07 04:33:18;;;;;;;6.40;5.80;;;9.50;99.90;;;;;;5059300;28;20601;-46
2022/04/07 04:35:46;;;;;;;7.77;6.17;;;9.50;99.90;;;;;;5055066;28;20210;-44
2022/04/07 04:38:13;;;;;;;10.50;6.37;;;9.50;99.90;;;;;;5064325;28;20215;-47
2022/04/07 04:40:40;;;;;;;6.20;5.10;;;9.50;99.90;;;;;;5057668;28;20996;-46
2022/04/07 04:43:06;;;;;;;6.30;5.70;;;9.50;99.90;;;;;;5060062;28;20214;-46
2022/04/07 04:45:33;;;;;;;6.63;5.47;;;9.50;99.90;;;;;;5056329;28;20191;-46
2022/04/07 04:48:00;;;;;;;6.07;5.57;;;9.50;99.90;;;;;;5064434;28;20279;-44
2022/04/07 04:50:27;;;;;;;8.60;6.03;;;9.50;99.90;;;;;;5050309;28;20272;-44
2022/04/07 04:52:55;;;;;;;6.50;4.90;;;9.50;99.90;;;;;;5063959;28;20203;-44
2022/04/07 04:55:22;;;;;;;5.57;3.80;;;9.50;99.90;;;;;;5060776;28;20210;-46
2022/04/07 04:57:49;;;;;;;7.63;5.80;;;9.40;99.90;;;;;;5055404;28;20237;-47
2022/04/07 05:00:16;;;;;;;6.77;5.07;;;9.50;99.90;;;;;;5063442;28;20213;-44
2022/04/07 05:02:43;;;;;;;5.87;5.10;;;9.50;99.90;;;;;;5054910;28;20394;-44
2022/04/07 05:05:10;;;;;;;7.87;5.47;;;9.50;99.90;;;;;;5049994;28;20214;-45
2022/04/07 05:07:37;;;;;;;6.27;5.33;;;9.50;99.90;;;;;;5061061;28;20210;-44
2022/04/07 05:10:06;;;;;;;6.10;4.70;;;9.40;99.90;;;;;;5064889;28;20198;-46
2022/04/07 05:12:34;;;;;;;6.13;5.23;;;9.40;99.90;;;;;;5053590;28;20187;-47
2022/04/07 05:15:01;;;;;;;4.63;4.20;;;9.40;99.90;;;;;;5057574;28;20203;-47
2022/04/07 05:17:27;;;;;;;5.47;4.97;;;9.40;99.90;;;;;;5054691;28;20608;-47
2022/04/07 05:19:54;;;;;;;5.77;5.23;;;9.40;99.90;;;;;;5049996;28;20222;-47
2022/04/07 05:22:21;;;;;;;6.30;5.70;;;9.40;99.90;;;;;;5061793;28;20215;-46
2022/04/07 05:24:49;;;;;;;6.30;5.07;;;9.40;99.90;;;;;;5059107;28;20219;-49
2022/04/07 05:27:18;;;;;;;8.00;7.20;;;9.40;99.90;;;;;;5059364;28;20360;-44
2022/04/07 05:29:45;;;;;;;10.63;6.63;;;9.40;99.90;;;;;;5053429;28;20420;-46
2022/04/07 05:32:11;;;;;;;7.30;6.60;;;9.40;99.90;;;;;;5054505;28;20249;-46
2022/04/07 05:34:39;;;;;;;6.87;5.87;;;9.40;99.90;;;;;;5040666;28;20576;-46
2022/04/07 05:37:06;;;;;;;7.37;5.47;;;9.50;99.90;;;;;;5055091;28;20268;-46
2022/04/07 05:39:32;;;;;;;10.03;6.43;;;9.50;99.90;;;;;;5061520;28;20292;-44
2022/04/07 05:41:59;;;;;;;9.27;5.30;;;9.50;99.90;;;;;;5044397;28;20567;-45
2022/04/07 05:44:27;;;;;;;5.53;4.13;;;9.50;99.90;;;;;;5057249;28;20305;-45
2022/04/07 05:46:55;;;;;;;7.37;5.13;;;9.50;99.90;;;;;;5054570;28;20274;-46
2022/04/07 05:49:21;;;;;;;5.03;4.50;;;9.50;99.90;;;;;;5057274;28;20209;-46
2022/04/07 05:51:50;;;;;;;6.10;4.63;;;9.50;99.90;;;;;;5044354;28;20199;-46
2022/04/07 05:54:18;;;;;;;7.33;4.60;;;9.50;99.90;;;;;;5060358;28;20194;-43
2022/04/07 05:56:45;;;;;;;4.07;3.20;;;9.50;99.90;;;;;;5058383;28;20754;-44
2022/04/07 05:59:12;;;;;;;10.17;5.63;;;9.40;99.90;;;;;;5057433;28;20194;-45
2022/04/07 06:01:39;;;;;;;5.37;3.70;;;9.40;99.90;;;;;;5053455;28;20198;-44
2022/04/07 06:04:07;;;;;;;4.20;3.67;;;9.30;99.90;;;;;;5060194;28;20935;-43
2022/04/07 06:06:33;;;;;;;6.60;3.93;;;9.30;99.90;;;;;;5044794;28;20207;-42
2022/04/07 06:09:00;;;;;;;9.17;5.00;;;9.20;99.90;;;;;;5054331;28;20195;-44
2022/04/07 06:11:27;;;;;;;5.07;4.50;;;9.10;99.90;;;;;;5064123;28;20285;-43
2022/04/07 06:13:54;;;;;;;10.67;5.33;;;9.10;99.90;;;;;;5054860;28;20202;-47
2022/04/07 06:16:21;;;;;;;7.07;3.87;;;9.10;99.90;;;;;;5053888;28;20576;-43
2022/04/07 06:18:49;;;;;;;6.47;4.30;;;9.10;99.90;;;;;;5056107;28;20217;-43
2022/04/07 06:21:16;;;;;;;7.13;3.87;;;9.20;99.90;;;;;;5048522;28;20202;-44
2022/04/07 06:23:42;;;;;;;4.43;3.70;;;9.20;99.90;;;;;;5056894;28;20284;-44
2022/04/07 06:26:09;;;;;;;4.13;3.50;;;9.20;99.90;;;;;;5054875;28;20921;-46
2022/04/07 06:28:36;;;;;;;10.03;5.27;;;9.30;99.90;;;;;;5057723;28;20297;-44
2022/04/07 06:31:02;;;;;;;8.73;4.13;;;9.30;99.90;;;;;;5053448;28;20350;-43
2022/04/07 06:33:29;;;;;;;8.40;4.47;;;9.40;99.90;;;;;;5056981;28;20660;-44
2022/04/07 06:35:57;;;;;;;6.00;4.23;;;9.40;99.90;;;;;;5059166;28;20200;-45
2022/04/07 06:38:24;;;;;;;3.57;3.37;;;9.50;99.90;;;;;;5045162;28;20305;-44
2022/04/07 06:40:51;;;;;;;6.83;4.40;;;9.50;99.90;;;;;;5060061;28;20206;-46
2022/04/07 06:43:19;;;;;;;4.87;4.00;;;9.60;99.90;;;;;;5061351;28;20238;-44
2022/04/07 06:45:46;;;;;;;6.60;4.37;;;9.60;99.90;;;;;;5056050;28;20202;-47
2022/04/07 06:48:12;;;;;;;5.57;4.90;;;9.60;99.90;;;;;;5053991;28;21116;-43
2022/04/07 06:50:39;;;;;;;7.63;4.90;;;9.70;99.90;;;;;;5056228;28;20199;-44
2022/04/07 06:53:08;;;;;;;5.43;4.87;;;9.80;99.90;;;;;;5046353;28;20214;-43
2022/04/07 06:55:34;;;;;;;9.73;6.47;;;9.80;99.90;;;;;;5057152;28;20202;-44
2022/04/07 06:58:03;;;;;;;6.20;4.33;;;9.80;99.90;;;;;;5063020;28;20418;-43
2022/04/07 07:00:33;;;;;;;8.03;5.53;;;9.80;99.90;;;;;;5056055;28;20207;-44
2022/04/07 07:03:01;;;;;;;15.23;5.77;;;9.80;99.90;;;;;;5050805;28;20699;-43
2022/04/07 07:05:30;;;;;;;9.13;5.50;;;9.80;99.90;;;;;;5062919;28;20198;-43
2022/04/07 07:07:57;;;;;;;9.30;4.87;;;9.80;99.90;;;;;;5054478;28;20225;-44
2022/04/07 07:10:28;;;;;;;7.40;4.40;;;9.90;99.90;;;;;;5050356;28;20239;-44
2022/04/07 07:12:55;;;;;;;12.53;4.87;;;9.90;99.90;;;;;;5058382;28;20677;-43
2022/04/07 07:15:22;;;;;;;9.43;4.80;;;10.00;99.90;;;;;;5060872;28;20252;-43
2022/04/07 07:17:49;;;;;;;8.23;5.27;;;10.00;99.90;;;;;;5054335;28;20222;-46
2022/04/07 07:20:15;;;;;;;9.97;5.43;;;10.10;99.90;;;;;;5054224;28;20892;-46
2022/04/07 07:22:43;;;;;;;9.53;4.80;;;10.10;99.90;;;;;;5061705;28;20256;-46
2022/04/07 07:25:12;;;;;;;5.13;3.77;;;10.20;99.90;;;;;;5043875;28;20206;-45
2022/04/07 07:27:41;;;;;;;9.67;4.50;;;10.30;99.90;;;;;;5060491;28;20565;-46
2022/04/07 07:30:10;;;;;;;8.17;3.63;;;10.20;99.90;;;;;;5054715;28;20207;-43
2022/04/07 07:32:37;;;;;;;6.07;3.70;;;10.20;99.90;;;;;;5052733;28;20286;-48
2022/04/07 07:35:04;;;;;;;12.87;4.23;;;10.20;99.90;;;;;;5052816;28;20201;-44
2022/04/07 07:37:31;;;;;;;7.90;3.40;;;10.20;99.90;;;;;;5057726;28;20226;-43
2022/04/07 07:40:02;;;;;;;10.17;5.27;;;10.20;99.90;;;;;;5045156;28;20204;-43
2022/04/07 07:42:29;;;;;;;6.03;4.03;;;10.10;99.90;;;;;;5054330;28;20230;-45
2022/04/07 07:44:57;;;;;;;3.67;3.03;;;10.10;99.90;;;;;;5058721;28;20221;-47
2022/04/07 07:47:23;;;;;;;4.80;3.87;;;10.00;99.90;;;;;;5055621;28;20223;-46
2022/04/07 07:49:50;;;;;;;6.53;3.33;;;10.00;99.90;;;;;;5051685;28;20670;-47
2022/04/07 07:52:17;;;;;;;5.40;3.80;;;9.90;99.90;;;;;;5057402;28;20199;-43
2022/04/07 07:54:44;;;;;;;3.90;3.60;;;9.80;99.90;;;;;;5054562;28;20191;-44
2022/04/07 07:57:11;;;;;;;7.87;4.57;;;9.80;99.90;;;;;;5048368;28;20228;-44
2022/04/07 07:59:37;;;;;;;8.00;3.60;;;9.70;99.90;;;;;;5061520;28;20248;-43
2022/04/07 08:02:06;;;;;;;6.03;3.80;;;9.60;99.90;;;;;;5056857;28;20271;-43
2022/04/07 08:04:33;;;;;;;9.10;4.97;;;9.60;99.90;;;;;;5051870;28;20222;-44
2022/04/07 08:06:59;;;;;;;6.00;3.03;;;9.50;99.90;;;;;;5052410;28;20293;-43
2022/04/07 08:09:27;;;;;;;8.83;4.10;;;9.50;99.90;;;;;;5061048;28;20607;-46
2022/04/07 08:11:53;;;;;;;6.73;3.27;;;9.50;99.90;;;;;;5049623;28;20612;-44
2022/04/07 08:14:20;;;;;;;3.40;3.00;;;9.40;99.90;;;;;;5063668;28;20190;-44
2022/04/07 08:16:47;;;;;;;7.40;3.10;;;9.40;99.90;;;;;;5061792;28;20285;-45
2022/04/07 08:19:16;;;;;;;10.10;3.90;;;9.40;99.90;;;;;;5057868;28;21256;-47
2022/04/07 08:21:43;;;;;;;4.80;3.47;;;9.40;99.90;;;;;;5062531;28;20194;-46
2022/04/07 08:24:10;;;;;;;5.37;3.10;;;9.40;99.90;;;;;;5055714;28;20297;-45
2022/04/07 08:26:37;;;;;;;6.90;3.00;;;9.40;99.90;;;;;;5051149;28;20226;-44
2022/04/07 08:29:04;;;;;;;7.97;3.63;;;9.40;99.90;;;;;;5060875;28;20848;-49
2022/04/07 08:31:31;;;;;;;4.57;3.30;;;9.40;99.90;;;;;;5058832;28;20210;-43
2022/04/07 08:33:57;;;;;;;4.50;3.13;;;9.40;99.90;;;;;;5060167;28;20655;-44
2022/04/07 08:36:25;;;;;;;6.93;3.03;;;9.40;99.90;;;;;;5057758;28;20210;-45
2022/04/07 08:38:52;;;;;;;3.83;3.30;;;9.40;99.90;;;;;;5055542;28;20703;-44
2022/04/07 08:41:20;;;;;;;5.63;3.47;;;9.40;99.90;;;;;;5049704;28;20285;-45
2022/04/07 08:43:47;;;;;;;5.60;3.43;;;9.40;99.90;;;;;;5061098;28;20203;-44
2022/04/07 08:46:14;;;;;;;6.73;3.50;;;9.30;99.90;;;;;;5057800;28;20207;-44
2022/04/07 08:48:42;;;;;;;4.93;3.60;;;9.30;99.90;;;;;;5063789;28;20770;-44
2022/04/07 08:51:09;;;;;;;3.40;2.53;;;9.30;99.90;;;;;;5050252;28;20282;-45
2022/04/07 08:53:39;;;;;;;4.83;2.43;;;9.30;99.90;;;;;;5058261;28;20233;-44
2022/04/07 08:56:08;;;;;;;3.73;2.77;;;9.30;99.90;;;;;;5042848;28;22168;-43
2022/04/07 08:58:35;;;;;;;7.00;2.90;;;9.20;99.90;;;;;;5063693;28;20226;-44
2022/04/07 09:01:02;;;;;;;6.23;3.73;;;9.20;99.90;;;;;;5058582;28;20915;-43
2022/04/07 09:03:29;;;;;;;4.50;2.97;;;9.20;99.90;;;;;;5063676;28;20195;-44
2022/04/07 09:05:58;;;;;;;3.73;2.63;;;9.20;99.90;;;;;;5055470;28;20209;-45
2022/04/07 09:08:31;;;;;;;1.80;0.80;;;9.10;99.90;;;;;;5063515;28;20222;-43
2022/04/07 09:11:00;;;;;;;1.23;0.70;;;8.90;99.90;;;;;;5053006;28;20210;-48
2022/04/07 09:13:34;;;;;;;1.10;0.50;;;8.00;99.90;;;;;;5047329;28;20211;-46
2022/04/07 09:16:01;;;;;;;1.03;0.43;;;7.70;99.90;;;;;;5058536;28;20191;-47
2022/04/07 09:18:27;;;;;;;0.40;0.20;;;7.50;99.90;;;;;;5054206;28;20222;-46
2022/04/07 09:20:54;;;;;;;0.83;0.30;;;7.20;99.90;;;;;;5061559;28;20191;-45
2022/04/07 09:23:21;;;;;;;1.93;0.43;;;7.00;99.90;;;;;;5057228;28;20261;-47
2022/04/07 09:25:50;;;;;;;1.70;0.30;;;7.00;99.90;;;;;;5053577;28;20206;-44
2022/04/07 09:28:32;;;;;;;2.03;0.43;;;6.80;99.90;;;;;;5046676;28;20225;-43
2022/04/07 09:31:00;;;;;;;1.43;0.40;;;6.70;99.90;;;;;;5054524;28;20211;-45
2022/04/07 09:33:28;;;;;;;2.23;0.40;;;6.70;99.90;;;;;;5063942;28;20210;-43
2022/04/07 09:36:02;;;;;;;1.10;0.50;;;6.70;99.90;;;;;;5054709;28;20277;-48
2022/04/07 09:38:31;;;;;;;5.70;1.23;;;6.60;99.90;;;;;;5057035;28;20226;-46
2022/04/07 09:41:09;;;;;;;6.60;2.60;;;6.60;99.90;;;;;;5055219;28;20227;-47
2022/04/07 09:43:45;;;;;;;0.50;0.50;;;6.70;99.90;;;;;;5045992;28;20211;-43
2022/04/07 09:46:12;;;;;;;3.70;1.00;;;6.60;99.90;;;;;;5060154;28;20186;-45
2022/04/07 09:48:40;;;;;;;6.33;2.37;;;6.60;99.90;;;;;;5063679;28;20215;-45
2022/04/07 09:51:08;;;;;;;3.10;1.13;;;6.70;99.90;;;;;;5059020;28;20194;-44
2022/04/07 09:53:37;;;;;;;1.20;0.40;;;6.70;99.90;;;;;;5058300;28;20628;-44
2022/04/07 09:56:06;;;;;;;4.97;0.80;;;6.60;99.90;;;;;;5052766;28;20223;-43
2022/04/07 09:58:33;;;;;;;4.20;1.33;;;6.60;99.90;;;;;;5051412;28;20221;-43
2022/04/07 10:01:03;;;;;;;4.90;1.67;;;6.60;99.90;;;;;;5058211;28;20206;-43
2022/04/07 10:03:31;;;;;;;2.37;0.80;;;6.60;99.90;;;;;;5063655;28;20278;-46
2022/04/07 10:05:58;;;;;;;6.67;1.43;;;6.60;99.90;;;;;;5058564;28;20659;-45
2022/04/07 10:08:25;;;;;;;12.80;2.70;;;6.50;99.90;;;;;;5056345;28;20219;-44
2022/04/07 10:10:52;;;;;;;5.73;1.07;;;6.50;99.90;;;;;;5057579;28;20203;-48
2022/04/07 10:13:19;;;;;;;6.77;1.60;;;6.50;99.90;;;;;;5058918;28;20322;-44
2022/04/07 10:15:46;;;;;;;7.37;2.03;;;6.50;99.90;;;;;;5055586;28;20206;-42
2022/04/07 10:18:22;;;;;;;0.93;0.73;;;6.50;99.90;;;;;;5059397;28;20980;-45
2022/04/07 10:20:52;;;;;;;11.33;2.37;;;6.50;99.90;;;;;;5059950;28;20194;-48
2022/04/07 10:23:32;;;;;;;7.87;2.10;;;6.40;99.90;;;;;;5057446;28;20187;-43
2022/04/07 10:26:01;;;;;;;8.20;1.83;;;6.30;99.90;;;;;;5051319;28;20218;-43
2022/04/07 10:28:28;;;;;;;10.43;2.73;;;6.30;99.90;;;;;;5056615;28;20222;-47
2022/04/07 10:30:55;;;;;;;6.93;1.43;;;6.20;99.90;;;;;;5047523;28;20687;-44
2022/04/07 10:33:41;;;;;;;19.80;3.90;;;6.20;99.90;;;;;;5060001;28;20203;-46
2022/04/07 10:36:11;;;;;;;14.20;2.33;;;6.20;99.90;;;;;;5049890;28;20895;-43
2022/04/07 10:38:39;;;;;;;11.67;2.63;;;6.20;99.90;;;;;;5055462;28;20427;-43
2022/04/07 10:41:07;;;;;;;11.70;3.07;;;6.10;99.90;;;;;;5057302;28;20687;-43
2022/04/07 10:43:38;;;;;;;10.93;2.70;;;6.10;99.90;;;;;;5047635;28;20199;-44
2022/04/07 10:46:18;;;;;;;20.80;3.00;;;6.10;99.90;;;;;;5045735;28;21112;-43
2022/04/07 10:48:50;;;;;;;17.73;2.90;;;6.10;99.90;;;;;;5059906;28;20186;-44
2022/04/07 10:51:18;;;;;;;3.77;0.83;;;6.10;99.90;;;;;;5058140;28;20218;-47
2022/04/07 10:54:03;;;;;;;28.07;11.23;;;6.00;99.90;;;;;;5059440;28;20183;-46
2022/04/07 10:56:34;;;;;;;13.50;3.40;;;6.00;99.90;;;;;;5047750;28;20234;-48
2022/04/07 10:59:18;;;;;;;23.07;3.63;;;6.00;99.90;;;;;;5056999;28;20936;-44
2022/04/07 11:02:01;;;;;;;6.77;2.33;;;6.00;99.90;;;;;;5045100;28;20580;-43
2022/04/07 11:04:34;;;;;;;4.03;2.03;;;6.00;99.90;;;;;;5055007;28;20219;-43
2022/04/07 11:07:22;;;;;;;3.53;1.87;;;6.00;99.90;;;;;;5057873;28;20209;-45
2022/04/07 11:10:05;;;;;;;10.20;2.40;;;6.00;99.90;;;;;;5055062;28;20206;-44
2022/04/07 11:12:33;;;;;;;3.90;1.40;;;6.00;99.90;;;;;;5052287;28;20832;-43
2022/04/07 11:15:28;;;;;;;10.87;4.07;;;6.00;99.90;;;;;;5055293;28;20195;-44
2022/04/07 11:18:02;;;;;;;9.47;2.83;;;6.00;99.90;;;;;;5045435;28;20226;-44
2022/04/07 11:20:30;;;;;;;4.70;1.70;;;6.10;99.90;;;;;;5054362;28;20206;-44
2022/04/07 11:22:58;;;;;;;5.50;1.60;;;6.20;99.90;;;;;;5061036;28;20630;-47
2022/04/07 11:25:28;;;;;;;5.33;1.80;;;6.40;99.90;;;;;;5052898;28;20211;-47
2022/04/07 11:28:13;;;;;;;5.90;1.77;;;6.60;99.90;;;;;;5058455;28;20645;-45
2022/04/07 11:30:46;;;;;;;7.50;2.60;;;6.80;99.90;;;;;;5055999;28;20927;-44
2022/04/07 11:33:31;;;;;;;10.63;2.10;;;6.90;99.90;;;;;;5050085;28;20680;-46
2022/04/07 11:36:33;;;;;;;14.40;3.67;;;7.20;99.90;;;;;;5055159;28;20557;-44
2022/04/07 11:39:00;;;;;;;2.47;1.77;;;7.40;99.90;;;;;;5060599;28;20194;-45
2022/04/07 11:41:33;;;;;;;6.57;2.10;;;7.50;99.90;;;;;;5050635;28;20212;-46
2022/04/07 11:44:09;;;;;;;4.03;1.77;;;7.60;99.90;;;;;;5059857;28;20201;-46
2022/04/07 11:46:35;;;;;;;2.13;1.60;;;7.80;99.90;;;;;;5055529;28;20182;-43
2022/04/07 11:49:04;;;;;;;7.47;3.00;;;8.10;99.90;;;;;;5053444;28;20202;-44
2022/04/07 11:51:36;;;;;;;5.07;1.83;;;8.20;99.90;;;;;;5060873;28;20194;-43
2022/04/07 11:54:03;;;;;;;3.60;1.70;;;8.20;99.90;;;;;;5064387;28;20240;-47
2022/04/07 11:56:32;;;;;;;2.37;1.60;;;8.10;99.90;;;;;;5050035;28;20264;-44
2022/04/07 11:59:01;;;;;;;4.13;1.30;;;8.10;99.90;;;;;;5065861;28;20290;-44
2022/04/07 12:01:29;;;;;;;2.23;1.27;;;8.20;99.90;;;;;;5056801;28;20875;-45
2022/04/07 12:03:58;;;;;;;1.70;1.53;;;8.10;99.90;;;;;;5055539;28;20202;-45
2022/04/07 12:06:25;;;;;;;3.80;2.77;;;8.10;99.90;;;;;;5055391;28;20687;-44
2022/04/07 12:08:55;;;;;;;2.77;1.80;;;8.30;99.90;;;;;;5065259;28;20194;-46
2022/04/07 12:11:22;;;;;;;6.20;2.63;;;8.40;99.90;;;;;;5059025;28;20236;-46
2022/04/07 12:13:51;;;;;;;3.40;1.40;;;8.50;99.90;;;;;;5059642;28;20303;-44
2022/04/07 12:16:18;;;;;;;2.87;1.60;;;8.50;99.90;;;;;;5053726;28;20619;-49
2022/04/07 12:18:53;;;;;;;3.73;1.93;;;8.70;99.90;;;;;;5048858;28;20214;-43
2022/04/07 12:21:20;;;;;;;5.10;2.87;;;8.90;99.90;;;;;;5059248;28;20202;-48
2022/04/07 12:23:48;;;;;;;6.53;2.20;;;9.00;99.90;;;;;;5061974;28;20210;-44
2022/04/07 12:26:17;;;;;;;2.90;2.10;;;9.10;99.90;;;;;;5063151;28;20219;-45
2022/04/07 12:28:43;;;;;;;5.77;1.93;;;9.10;99.90;;;;;;5058624;28;20186;-43
2022/04/07 12:31:12;;;;;;;3.17;1.80;;;9.20;99.90;;;;;;5058933;28;20227;-49
2022/04/07 12:33:41;;;;;;;1.90;1.50;;;9.20;99.90;;;;;;5060997;28;20190;-47
2022/04/07 12:36:08;;;;;;;2.70;1.93;;;9.20;99.90;;;;;;5055762;28;20213;-47
2022/04/07 12:38:35;;;;;;;3.97;2.43;;;9.40;99.90;;;;;;5061344;28;20256;-48
2022/04/07 12:41:13;;;;;;;5.00;1.50;;;9.40;99.90;;;;;;5061663;28;20182;-46
2022/04/07 12:43:50;;;;;;;1.90;1.40;;;9.60;99.90;;;;;;5056918;28;20290;-46
2022/04/07 12:46:18;;;;;;;4.47;2.10;;;9.70;99.90;;;;;;5059324;28;20214;-45
2022/04/07 12:49:02;;;;;;;2.00;1.40;;;9.80;99.90;;;;;;5061727;28;20232;-45
2022/04/07 12:51:30;;;;;;;1.60;1.50;;;9.90;99.90;;;;;;5048667;28;20229;-44
2022/04/07 12:54:11;;;;;;;3.13;1.97;;;10.00;99.90;;;;;;5060880;28;20274;-43
2022/04/07 12:56:38;;;;;;;2.23;1.40;;;10.30;99.90;;;;;;5058812;28;20272;-47
2022/04/07 12:59:09;;;;;;;3.77;1.27;;;10.30;99.90;;;;;;5056947;28;20225;-47
2022/04/07 13:01:36;;;;;;;2.87;1.70;;;10.30;99.90;;;;;;5057215;28;20211;-43